EDT,Max TemperatureF,Mean TemperatureF,Min TemperatureF,Max Dew PointF,MeanDew PointF,Min DewpointF,Max Humidity, Mean Humidity, Min Humidity, Max Sea Level PressureIn, Mean Sea Level PressureIn, Min Sea Level PressureIn, Max VisibilityMiles, Mean VisibilityMiles, Min VisibilityMiles, Max Wind SpeedMPH, Mean Wind SpeedMPH, Max Gust SpeedMPH,PrecipitationIn, CloudCover, Events, WindDirDegrees
2013-4-1,30,25,20,17,11,8,68,55,42,30.07,29.91,29.69,10,10,8,25,12,33,T,6,Snow,299
2013-4-2,35,27,19,16,11,5,84,60,35,30.24,30.11,30.01,10,10,3,22,10,36,T,4,Snow,284
2013-4-3,40,30,20,18,13,10,74,52,30,30.40,30.33,30.24,10,9,1,18,7,26,0.01,3,Snow,285
2013-4-4,55,39,22,32,21,6,89,58,26,30.28,30.04,29.88,10,9,4,21,9,31,T,4,Rain,253
2013-4-5,39,33,26,29,17,10,82,57,32,30.25,30.15,29.99,10,10,8,20,9,26,T,2,,322
2013-4-6,36,28,20,29,25,14,92,74,56,30.26,30.07,29.71,10,6,0,23,10,29,0.16,7,Fog-Rain-Snow,143
2013-4-7,47,41,35,43,31,26,86,72,57,30.07,29.73,29.42,10,10,9,23,9,33,0.02,8,Rain,261
2013-4-8,39,32,25,34,31,24,92,81,70,30.09,29.96,29.82,10,8,2,18,8,25,0.33,6,Rain,87
2013-4-9,43,39,34,37,34,33,100,88,76,30.12,30.06,29.98,10,7,2,13,4,16,0.36,8,Rain,2
2013-4-10,40,33,26,34,30,27,96,80,64,30.14,30.11,30.07,10,7,1,16,6,21,0.24,7,Rain-Snow,31
2013-4-11,34,31,27,26,22,18,92,75,58,30.18,30.05,29.89,10,8,1,26,16,35,0.47,6,Rain-Snow,75
2013-4-12,33,31,29,31,29,25,100,89,78,29.87,29.70,29.61,6,2,0,25,10,33,0.63,8,Fog-Rain-Snow,73
2013-4-13,38,35,31,34,30,23,92,78,64,29.91,29.74,29.67,10,7,2,15,4,22,0.06,8,Rain-Snow,247
2013-4-14,42,35,27,28,25,22,85,68,50,30.12,30.04,29.92,10,10,10,17,8,22,T,4,,189
2013-4-15,62,48,34,49,41,28,100,79,57,30.02,29.87,29.81,10,7,0,22,9,28,0.28,6,Fog-Rain,155
2013-4-16,53,44,34,48,33,26,93,66,39,30.32,30.03,29.85,10,9,5,18,9,26,0.22,5,Rain,283
2013-4-17,43,36,28,34,30,26,92,77,62,30.45,30.33,30.16,10,10,9,16,7,21,0.12,4,Rain,86
2013-4-18,47,43,38,45,40,34,100,96,92,30.14,29.72,29.51,10,6,1,17,6,25,0.93,8,Rain-Thunderstorm,91
2013-4-19,56,43,29,55,35,17,100,76,51,29.62,29.35,29.23,10,7,0,28,15,40,0.11,8,Fog-Rain-Snow,218
2013-4-20,37,30,22,18,15,10,74,57,40,30.47,30.02,29.65,10,8,2,21,11,32,T,7,Snow,294
2013-4-21,41,29,17,28,21,14,92,66,40,30.66,30.57,30.48,10,10,10,23,8,28,0.00,1,,137
2013-4-22,57,45,32,33,29,25,82,57,32,30.46,30.33,30.21,10,10,10,22,10,28,0.00,2,,143
2013-4-23,62,47,31,50,37,29,96,72,48,30.20,29.95,29.83,10,8,2,20,9,28,0.57,5,Rain,205
2013-4-24,44,37,29,31,28,20,89,67,45,30.04,29.90,29.84,10,10,10,18,8,23,T,6,Rain,324
2013-4-25,45,36,26,36,28,21,85,67,49,30.30,30.07,29.97,10,9,2,20,9,30,0.12,5,Rain,228
2013-4-26,59,42,24,34,28,22,92,61,30,30.39,30.31,30.22,10,10,10,24,9,30,T,2,Rain,186
2013-4-27,71,59,46,44,40,35,76,57,37,30.25,30.18,30.09,10,10,10,20,7,23,T,5,Rain,185
2013-4-28,65,51,36,49,41,34,85,66,47,30.10,29.98,29.88,10,10,10,22,9,28,0.00,4,,136
2013-4-29,64,54,43,50,47,43,100,80,60,29.93,29.89,29.86,10,6,0,17,5,22,0.07,7,Fog-Rain,109
2013-4-30,71,57,43,57,50,42,100,77,53,29.98,29.93,29.88,10,6,0,25,11,35,0.11,5,Fog-Rain,156